NATURA VA

 METAR AND TAF INFORMATION
METAR FOR LFML
ADDS - METARS form results

(0423 UTC 16 January 2019)
Data provider http://aviationweather.gov/metar/data/
 
METAR text: LFML 160400Z AUTO 25003KT 230V290 9999 SCT030 04/00 Q1019 NOSIG
Conditions at: LFML (MARSEILLE/MARIGN, FR) observed 0400 UTC 16 January 2019
Temperature: 4.0°C (39°F)
Dewpoint: 0.0°C (32°F) [RH = 75%]
Pressure (altimeter): 30.09 inches Hg (1019.0 mb)
Winds: from the WSW (250 degrees) at 3 MPH (3 knots; 1.5 m/s)
Visibility: 6 or more miles (10+ km)
Ceiling: at least 12,000 feet AGL
Clouds: scattered clouds at 3000 feet AGL
Weather: no significant weather observed at this time

METAR text: LFML 160330Z AUTO 29002KT 9999 BKN030 04/01 Q1019 NOSIG
Conditions at: LFML (MARSEILLE/MARIGN, FR) observed 0330 UTC 16 January 2019
Temperature: 4.0°C (39°F)
Dewpoint: 1.0°C (34°F) [RH = 81%]
Pressure (altimeter): 30.09 inches Hg (1019.0 mb)
Winds: from the WNW (290 degrees) at 2 MPH (2 knots; 1.0 m/s)
Visibility: 6 or more miles (10+ km)
Ceiling: 3000 feet AGL
Clouds: broken clouds at 3000 feet AGL
Weather: no significant weather observed at this time

Forecast for: LFML (MARSEILLE/MARIGN, FR)
Text: TAF LFML 160200Z 1603/1709 14008KT CAVOK
Forecast period: 0300 UTC 16 January 2019 to 0900 UTC 17 January 2019
Forecast type: FROM: standard forecast or significant change
Winds: from the SE (140 degrees) at 9 MPH (8 knots; 4.1 m/s)
Visibility: 6 or more miles 10+ km)
Ceiling: unknown
Clouds: missing
Weather: NSW  (no significant weather)
Text: PROB40
Forecast period: 1800 UTC 16 January 2019 to 0300 UTC 17 January 2019
Forecast type: TEMPORARY: The following changes expected for less than half the time period
Visibility: 2.49 miles (4.01 km)
Ceiling: 1400 feet AGL
Clouds: broken clouds at 1400 feet AGL
overcast cloud deck at 3000 feet AGL
Weather: RA  (moderate rain)

 AIRPORT MAP

 RUNWAY INFORMATION
Runway 13L Runway length 11483 ft Runway width 148 ft
Runway elevation 8 ft Runway displaced threshold 1116 ft Runway heading 134
Runway 31R Runway length 11483 ft Runway width 148 ft
Runway elevation 53 ft Runway displaced threshold 2165 ft Runway heading 314
Runway 13R Runway length 7776 ft Runway width 148 ft
Runway elevation 8 ft Runway displaced threshold 0 ft Runway heading 134
Runway 31L Runway length 7776 ft Runway width 148 ft
Runway elevation 61 ft Runway displaced threshold 345 ft Runway heading 314

 AIRPORT FREQUENCIES
Type APP Name APP/RADAR Frequency 120.2 MHZ
Type ATIS Name ATIS Frequency 125.35 MHZ
Type GND Name GND Frequency 121.9 MHZ
Type INFO Name INFO Frequency 118.85 MHZ
Type PFLT Name PERFLIGHT Frequency 121.725 MHZ
Type TWR Name TWR Frequency 118.375 MHZ

 AIRPORT NEAR NAVIGATION AIDS
Type VOR-DME Name Marseille/Provence Frequency 108800 KHZ



Powered by Virtual Airlines Manager [v2.6.2]